PWSweather.com
Personal Weather Stations
Station Observations
PICKERING
North Yorkshire, PickeringGB

North YorkshirePickeringGB

Lat: 54.2494, Lon: -0.7725

Elevation: 192

Station Type: Oregon Scientific WMR100

http://www.yorkshirewalker.co.uk/weather/

Latest ConditionsUpdated 4:15:01 AM GMT Tuesday, Oct 23, 2018
Currently Today's Max Today's Min Today's Average
Temperature 50.7°F10.4°C 51.1°F10.6°C 50.2°F10.1°C 50.6°F10.3°C
Dew Point 41.0°F5.0°C 41.0°F5.0°C 41.0°F5.0°C 41.0°F5.0°C
Winds 8.7 mph W14.0 kmh W 14.1 mph -22.7 kmh - - 8.9 mph 14.3 kmh
Wind Gusts 9.6 mph15.4 kmh 16.8 mph27.0 kmh - -
Humidity 70% 70% 67% 68%
Pressure 30.07 in1018.3 mb 30.18 in1022.0 mb 30.07 in1018.3 mb -
Hour Temp Dew Point Humidity Winds Wind Gusts Pressure Precip Precip Rate Daily Precip Total
04:15 AM 50.7°F10.4°C 41.0°F5.0°C 70% 8.7 mph W14.0 kmh W 9.6 mph15.4 kmh 30.07 in1018.3 mb 0.00 in0.0 mm 0.00 in0.0 mm 0.00 in0.0 mm
04:10 AM 50.9°F10.5°C 41.0°F5.0°C 69% 7.7 mph SW12.4 kmh SW 9.8 mph15.8 kmh 30.07 in1018.3 mb 0.00 in0.0 mm 0.00 in0.0 mm 0.00 in0.0 mm
04:05 AM 50.9°F10.5°C 41.0°F5.0°C 69% 6.0 mph SW9.7 kmh SW 9.8 mph15.8 kmh 30.09 in1019.0 mb 0.00 in0.0 mm 0.00 in0.0 mm 0.00 in0.0 mm
04:00 AM 50.9°F10.5°C 41.0°F5.0°C 69% 6.2 mph WSW10.0 kmh WSW 11.4 mph18.3 kmh 30.09 in1019.0 mb 0.00 in0.0 mm 0.00 in0.0 mm 0.00 in0.0 mm
03:55 AM 50.9°F10.5°C 41.0°F5.0°C 69% 6.2 mph WSW10.0 kmh WSW 11.4 mph18.3 kmh 30.09 in1019.0 mb 0.00 in0.0 mm 0.00 in0.0 mm 0.00 in0.0 mm
03:50 AM 50.9°F10.5°C 41.0°F5.0°C 68% 5.5 mph W8.9 kmh W 6.5 mph10.5 kmh 30.09 in1019.0 mb 0.00 in0.0 mm 0.00 in0.0 mm 0.00 in0.0 mm
03:45 AM 51.1°F10.6°C 41.0°F5.0°C 68% 8.1 mph WSW13.0 kmh WSW 9.8 mph15.8 kmh 30.09 in1019.0 mb 0.00 in0.0 mm 0.00 in0.0 mm 0.00 in0.0 mm
03:40 AM 50.9°F10.5°C 41.0°F5.0°C 68% 9.8 mph SW15.8 kmh SW 9.8 mph15.8 kmh 30.09 in1019.0 mb 0.00 in0.0 mm 0.00 in0.0 mm 0.00 in0.0 mm
03:35 AM 50.9°F10.5°C 41.0°F5.0°C 68% 9.8 mph SW15.8 kmh SW 9.8 mph15.8 kmh 30.12 in1020.0 mb 0.00 in0.0 mm 0.00 in0.0 mm 0.00 in0.0 mm
03:30 AM 50.9°F10.5°C 41.0°F5.0°C 68% 8.8 mph SW14.2 kmh SW 9.8 mph15.8 kmh 30.12 in1020.0 mb 0.00 in0.0 mm 0.00 in0.0 mm 0.00 in0.0 mm
03:25 AM 50.9°F10.5°C 41.0°F5.0°C 68% 8.6 mph SW13.8 kmh SW 12.3 mph19.8 kmh 30.12 in1020.0 mb 0.00 in0.0 mm 0.00 in0.0 mm 0.00 in0.0 mm
03:20 AM 50.9°F10.5°C 41.0°F5.0°C 68% 9.2 mph WSW14.8 kmh WSW 12.3 mph19.8 kmh 30.12 in1020.0 mb 0.00 in0.0 mm 0.00 in0.0 mm 0.00 in0.0 mm
03:15 AM 50.9°F10.5°C 41.0°F5.0°C 68% 8.9 mph WSW14.3 kmh WSW 12.3 mph19.8 kmh 30.12 in1020.0 mb 0.00 in0.0 mm 0.00 in0.0 mm 0.00 in0.0 mm
03:10 AM 50.9°F10.5°C 41.0°F5.0°C 68% 8.4 mph WSW13.5 kmh WSW 12.1 mph19.5 kmh 30.12 in1020.0 mb 0.00 in0.0 mm 0.00 in0.0 mm 0.00 in0.0 mm
03:05 AM 50.9°F10.5°C 41.0°F5.0°C 68% 10.1 mph SW16.3 kmh SW 16.3 mph26.2 kmh 30.12 in1020.0 mb 0.00 in0.0 mm 0.00 in0.0 mm 0.00 in0.0 mm
03:00 AM 50.7°F10.4°C 41.0°F5.0°C 68% 10.3 mph SW16.6 kmh SW 16.3 mph26.2 kmh 30.12 in1020.0 mb 0.00 in0.0 mm 0.00 in0.0 mm 0.00 in0.0 mm
02:55 AM 50.7°F10.4°C 41.0°F5.0°C 68% 6.1 mph WSW9.8 kmh WSW 10.1 mph16.3 kmh 30.12 in1020.0 mb 0.00 in0.0 mm 0.00 in0.0 mm 0.00 in0.0 mm
02:50 AM 50.5°F10.3°C 41.0°F5.0°C 68% 6.4 mph WSW10.3 kmh WSW 8.7 mph14.0 kmh 30.12 in1020.0 mb 0.00 in0.0 mm 0.00 in0.0 mm 0.00 in0.0 mm
02:45 AM 50.5°F10.3°C 41.0°F5.0°C 68% 7.3 mph WSW11.7 kmh WSW 8.7 mph14.0 kmh 30.12 in1020.0 mb 0.00 in0.0 mm 0.00 in0.0 mm 0.00 in0.0 mm
02:40 AM 50.5°F10.3°C 41.0°F5.0°C 68% 7.6 mph WSW12.2 kmh WSW 10.1 mph16.3 kmh 30.12 in1020.0 mb 0.00 in0.0 mm 0.00 in0.0 mm 0.00 in0.0 mm
02:35 AM 50.5°F10.3°C 41.0°F5.0°C 68% 9.4 mph WSW15.1 kmh WSW 10.1 mph16.3 kmh 30.15 in1021.0 mb 0.00 in0.0 mm 0.00 in0.0 mm 0.00 in0.0 mm
02:30 AM 50.4°F10.2°C 41.0°F5.0°C 68% 10.0 mph WSW16.1 kmh WSW 10.1 mph16.3 kmh 30.15 in1021.0 mb 0.00 in0.0 mm 0.00 in0.0 mm 0.00 in0.0 mm
02:25 AM 50.4°F10.2°C 41.0°F5.0°C 68% 10.8 mph WSW17.4 kmh WSW 12.5 mph20.1 kmh 30.15 in1021.0 mb 0.00 in0.0 mm 0.00 in0.0 mm 0.00 in0.0 mm
02:20 AM 50.4°F10.2°C 41.0°F5.0°C 68% 10.8 mph SW17.4 kmh SW 12.5 mph20.1 kmh 30.15 in1021.0 mb 0.00 in0.0 mm 0.00 in0.0 mm 0.00 in0.0 mm
02:15 AM 50.4°F10.2°C 41.0°F5.0°C 68% 9.6 mph WSW15.4 kmh WSW 11.0 mph17.7 kmh 30.15 in1021.0 mb 0.00 in0.0 mm 0.00 in0.0 mm 0.00 in0.0 mm
02:10 AM 50.2°F10.1°C 41.0°F5.0°C 68% 8.7 mph WSW14.0 kmh WSW 10.1 mph16.3 kmh 30.15 in1021.0 mb 0.00 in0.0 mm 0.00 in0.0 mm 0.00 in0.0 mm
02:05 AM 50.2°F10.1°C 41.0°F5.0°C 68% 8.2 mph WSW13.2 kmh WSW 10.7 mph17.2 kmh 30.15 in1021.0 mb 0.00 in0.0 mm 0.00 in0.0 mm 0.00 in0.0 mm
02:00 AM 50.4°F10.2°C 41.0°F5.0°C 67% 7.8 mph WSW12.6 kmh WSW 10.7 mph17.2 kmh 30.15 in1021.0 mb 0.00 in0.0 mm 0.00 in0.0 mm 0.00 in0.0 mm
01:55 AM 50.4°F10.2°C 41.0°F5.0°C 67% 6.6 mph WSW10.6 kmh WSW 10.7 mph17.2 kmh 30.15 in1021.0 mb 0.00 in0.0 mm 0.00 in0.0 mm 0.00 in0.0 mm
01:50 AM 50.4°F10.2°C 41.0°F5.0°C 67% 7.8 mph WSW12.6 kmh WSW 10.7 mph17.2 kmh 30.15 in1021.0 mb 0.00 in0.0 mm 0.00 in0.0 mm 0.00 in0.0 mm
01:45 AM 50.4°F10.2°C 41.0°F5.0°C 67% 10.7 mph WSW17.2 kmh WSW 10.7 mph17.2 kmh 30.15 in1021.0 mb 0.00 in0.0 mm 0.00 in0.0 mm 0.00 in0.0 mm
01:40 AM 50.5°F10.3°C 41.0°F5.0°C 67% 9.7 mph WSW15.6 kmh WSW 10.7 mph17.2 kmh 30.15 in1021.0 mb 0.00 in0.0 mm 0.00 in0.0 mm 0.00 in0.0 mm
01:35 AM 50.5°F10.3°C 41.0°F5.0°C 67% 9.5 mph WSW15.3 kmh WSW 10.7 mph17.2 kmh 30.15 in1021.0 mb 0.00 in0.0 mm 0.00 in0.0 mm 0.00 in0.0 mm
01:30 AM 50.5°F10.3°C 41.0°F5.0°C 67% 9.5 mph WSW15.3 kmh WSW 10.3 mph16.6 kmh 30.15 in1021.0 mb 0.00 in0.0 mm 0.00 in0.0 mm 0.00 in0.0 mm
01:25 AM 50.5°F10.3°C 41.0°F5.0°C 67% 8.5 mph W13.7 kmh W 10.3 mph16.6 kmh 30.15 in1021.0 mb 0.00 in0.0 mm 0.00 in0.0 mm 0.00 in0.0 mm
01:20 AM 50.7°F10.4°C 41.0°F5.0°C 67% 7.6 mph NW12.2 kmh NW 7.6 mph12.2 kmh 30.15 in1021.0 mb 0.00 in0.0 mm 0.00 in0.0 mm 0.00 in0.0 mm
01:15 AM 50.7°F10.4°C 41.0°F5.0°C 67% 7.6 mph NW12.2 kmh NW 7.6 mph12.2 kmh 30.15 in1021.0 mb 0.00 in0.0 mm 0.00 in0.0 mm 0.00 in0.0 mm
01:10 AM 50.7°F10.4°C 41.0°F5.0°C 67% 8.6 mph NW13.8 kmh NW 15.2 mph24.5 kmh 30.15 in1021.0 mb 0.00 in0.0 mm 0.00 in0.0 mm 0.00 in0.0 mm
01:05 AM 50.5°F10.3°C 41.0°F5.0°C 67% 11.4 mph W18.3 kmh W 15.2 mph24.5 kmh 30.15 in1021.0 mb 0.00 in0.0 mm 0.00 in0.0 mm 0.00 in0.0 mm
01:00 AM 50.5°F10.3°C 41.0°F5.0°C 67% 14.1 mph WSW22.7 kmh WSW 15.2 mph24.5 kmh 30.15 in1021.0 mb 0.00 in0.0 mm 0.00 in0.0 mm 0.00 in0.0 mm
12:55 AM 50.7°F10.4°C 41.0°F5.0°C 67% 13.0 mph WSW20.9 kmh WSW 15.2 mph24.5 kmh 30.15 in1021.0 mb 0.00 in0.0 mm 0.00 in0.0 mm 0.00 in0.0 mm
12:50 AM 50.7°F10.4°C 41.0°F5.0°C 67% 12.3 mph WSW19.8 kmh WSW 15.2 mph24.5 kmh 30.15 in1021.0 mb 0.00 in0.0 mm 0.00 in0.0 mm 0.00 in0.0 mm
12:45 AM 50.5°F10.3°C 41.0°F5.0°C 67% 11.3 mph WSW18.2 kmh WSW 12.8 mph20.6 kmh 30.15 in1021.0 mb 0.00 in0.0 mm 0.00 in0.0 mm 0.00 in0.0 mm
12:40 AM 50.7°F10.4°C 41.0°F5.0°C 67% 12.8 mph W20.6 kmh W 12.8 mph20.6 kmh 30.15 in1021.0 mb 0.00 in0.0 mm 0.00 in0.0 mm 0.00 in0.0 mm
12:35 AM 50.7°F10.4°C 41.0°F5.0°C 67% 9.5 mph WSW15.3 kmh WSW 12.8 mph20.6 kmh 30.18 in1022.0 mb 0.00 in0.0 mm 0.00 in0.0 mm 0.00 in0.0 mm
12:30 AM 50.7°F10.4°C 41.0°F5.0°C 67% 9.5 mph WSW15.3 kmh WSW 16.8 mph27.0 kmh 30.18 in1022.0 mb 0.00 in0.0 mm 0.00 in0.0 mm 0.00 in0.0 mm
12:25 AM 50.7°F10.4°C 41.0°F5.0°C 67% 8.7 mph W14.0 kmh W 16.8 mph27.0 kmh 30.18 in1022.0 mb 0.00 in0.0 mm 0.00 in0.0 mm 0.00 in0.0 mm
12:20 AM 50.5°F10.3°C 41.0°F5.0°C 68% 7.6 mph W12.2 kmh W 16.8 mph27.0 kmh 30.18 in1022.0 mb 0.00 in0.0 mm 0.00 in0.0 mm 0.00 in0.0 mm
12:15 AM 50.5°F10.3°C 41.0°F5.0°C 67% 7.8 mph WSW12.6 kmh WSW 9.8 mph15.8 kmh 30.18 in1022.0 mb 0.00 in0.0 mm 0.00 in0.0 mm 0.00 in0.0 mm
12:10 AM 50.7°F10.4°C 41.0°F5.0°C 67% 8.4 mph WSW13.5 kmh WSW 9.8 mph15.8 kmh 30.18 in1022.0 mb 0.00 in0.0 mm 0.00 in0.0 mm 0.00 in0.0 mm
12:05 AM 50.7°F10.4°C 41.0°F5.0°C 67% 8.1 mph WSW13.0 kmh WSW 8.5 mph13.7 kmh 30.18 in1022.0 mb 0.00 in0.0 mm 0.00 in0.0 mm 0.00 in0.0 mm
12:00 AM 50.5°F10.3°C 41.0°F5.0°C 67% 8.2 mph WSW13.2 kmh WSW 10.5 mph16.9 kmh 30.18 in1022.0 mb 0.00 in0.0 mm 0.00 in0.0 mm 0.00 in0.0 mm